sensor_id;sensor_type;location;lat;lon;timestamp;pressure;altitude;pressure_sealevel;temperature;humidity
64616;BME280;51027;42.162;24.754;2024-03-29T04:33:47;99636.72;;;14.37;61.93
64616;BME280;51027;42.162;24.754;2024-03-29T04:36:12;99640.78;;;14.45;61.25
64616;BME280;51027;42.162;24.754;2024-03-29T04:38:38;99657.59;;;14.59;60.84
64616;BME280;51027;42.162;24.754;2024-03-29T04:41:06;99638.28;;;14.57;60.47
64616;BME280;51027;42.162;24.754;2024-03-29T04:43:32;99656.38;;;14.81;59.36
64616;BME280;51027;42.162;24.754;2024-03-29T04:46:04;99647.44;;;14.67;59.44
64616;BME280;51027;42.162;24.754;2024-03-29T04:48:34;99660.16;;;14.77;59.23
64616;BME280;51027;42.162;24.754;2024-03-29T04:50:59;99646.81;;;14.78;58.92
64616;BME280;51027;42.162;24.754;2024-03-29T04:53:25;99646.34;;;14.72;59.06
64616;BME280;51027;42.162;24.754;2024-03-29T04:55:54;99666.38;;;14.91;58.84
64616;BME280;51027;42.162;24.754;2024-03-29T04:58:20;99659.41;;;14.75;59.57
64616;BME280;51027;42.162;24.754;2024-03-29T05:00:45;99652.47;;;14.72;59.37
64616;BME280;51027;42.162;24.754;2024-03-29T05:03:10;99663.44;;;14.82;59.35
64616;BME280;51027;42.162;24.754;2024-03-29T05:05:36;99643.34;;;14.62;59.85
64616;BME280;51027;42.162;24.754;2024-03-29T05:08:11;99672.75;;;14.73;60.51
64616;BME280;51027;42.162;24.754;2024-03-29T05:10:44;99677.78;;;14.93;59.90
64616;BME280;51027;42.162;24.754;2024-03-29T05:13:11;99670.56;;;14.95;59.78
64616;BME280;51027;42.162;24.754;2024-03-29T05:15:37;99676.97;;;15.07;59.43
64616;BME280;51027;42.162;24.754;2024-03-29T05:18:02;99671.00;;;15.34;58.35
64616;BME280;51027;42.162;24.754;2024-03-29T05:20:29;99689.28;;;15.38;57.12
64616;BME280;51027;42.162;24.754;2024-03-29T05:22:54;99697.47;;;15.65;56.69
64616;BME280;51027;42.162;24.754;2024-03-29T05:25:20;99696.72;;;15.92;55.47
64616;BME280;51027;42.162;24.754;2024-03-29T05:27:48;99706.53;;;16.05;55.24
64616;BME280;51027;42.162;24.754;2024-03-29T05:30:14;99704.13;;;16.29;54.83
64616;BME280;51027;42.162;24.754;2024-03-29T05:32:40;99704.22;;;16.56;53.96
64616;BME280;51027;42.162;24.754;2024-03-29T05:35:05;99701.56;;;16.56;53.80
64616;BME280;51027;42.162;24.754;2024-03-29T05:37:34;99722.41;;;16.91;53.36
64616;BME280;51027;42.162;24.754;2024-03-29T05:39:59;99689.13;;;16.57;53.16
64616;BME280;51027;42.162;24.754;2024-03-29T05:42:33;99692.41;;;16.75;52.58
64616;BME280;51027;42.162;24.754;2024-03-29T05:45:00;99733.84;;;17.06;52.84
64616;BME280;51027;42.162;24.754;2024-03-29T05:47:32;99729.56;;;17.03;52.42
64616;BME280;51027;42.162;24.754;2024-03-29T05:49:58;99725.41;;;17.26;52.50
64616;BME280;51027;42.162;24.754;2024-03-29T05:52:23;99732.59;;;17.11;52.34
64616;BME280;51027;42.162;24.754;2024-03-29T05:54:49;99748.28;;;17.55;52.25
64616;BME280;51027;42.162;24.754;2024-03-29T05:57:15;99746.31;;;17.45;52.15
64616;BME280;51027;42.162;24.754;2024-03-29T05:59:41;99734.44;;;17.23;52.48
64616;BME280;51027;42.162;24.754;2024-03-29T06:02:06;99745.50;;;17.57;52.12
64616;BME280;51027;42.162;24.754;2024-03-29T06:04:32;99732.91;;;17.73;51.55
64616;BME280;51027;42.162;24.754;2024-03-29T06:07:00;99736.53;;;17.72;51.37
64616;BME280;51027;42.162;24.754;2024-03-29T06:09:32;99741.97;;;17.96;51.32
64616;BME280;51027;42.162;24.754;2024-03-29T06:11:59;99727.06;;;18.19;50.25
64616;BME280;51027;42.162;24.754;2024-03-29T06:14:25;99741.66;;;18.52;50.07
64616;BME280;51027;42.162;24.754;2024-03-29T06:17:09;99758.06;;;18.46;50.28
64616;BME280;51027;42.162;24.754;2024-03-29T06:19:54;99739.75;;;18.16;50.82
64616;BME280;51027;42.162;24.754;2024-03-29T06:22:26;99755.94;;;18.63;50.38
64616;BME280;51027;42.162;24.754;2024-03-29T06:24:58;99755.38;;;18.58;51.08
64616;BME280;51027;42.162;24.754;2024-03-29T06:27:27;99768.94;;;18.68;50.93
64616;BME280;51027;42.162;24.754;2024-03-29T06:29:54;99742.16;;;18.82;50.75
64616;BME280;51027;42.162;24.754;2024-03-29T06:32:21;99773.03;;;18.35;51.26
64616;BME280;51027;42.162;24.754;2024-03-29T06:34:49;99772.66;;;18.78;50.24
64616;BME280;51027;42.162;24.754;2024-03-29T06:37:15;99761.13;;;18.90;49.99
64616;BME280;51027;42.162;24.754;2024-03-29T06:39:44;99773.94;;;18.85;49.60
64616;BME280;51027;42.162;24.754;2024-03-29T06:42:09;99768.59;;;19.22;49.31
64616;BME280;51027;42.162;24.754;2024-03-29T06:44:35;99776.09;;;19.17;48.30
64616;BME280;51027;42.162;24.754;2024-03-29T06:47:02;99783.78;;;19.09;48.60
64616;BME280;51027;42.162;24.754;2024-03-29T06:49:27;99776.63;;;19.22;48.62
64616;BME280;51027;42.162;24.754;2024-03-29T06:51:53;99787.41;;;19.44;47.99
64616;BME280;51027;42.162;24.754;2024-03-29T06:54:19;99780.69;;;19.15;47.07
64616;BME280;51027;42.162;24.754;2024-03-29T06:56:48;99786.53;;;19.56;46.63
64616;BME280;51027;42.162;24.754;2024-03-29T06:59:13;99786.09;;;19.50;46.59
64616;BME280;51027;42.162;24.754;2024-03-29T07:01:48;99802.63;;;20.03;45.85
64616;BME280;51027;42.162;24.754;2024-03-29T07:04:21;99803.16;;;19.60;46.15
64616;BME280;51027;42.162;24.754;2024-03-29T07:06:46;99794.81;;;20.00;45.19
64616;BME280;51027;42.162;24.754;2024-03-29T07:09:22;99799.63;;;19.83;45.51
64616;BME280;51027;42.162;24.754;2024-03-29T07:11:49;99781.47;;;20.11;45.32
64616;BME280;51027;42.162;24.754;2024-03-29T07:14:15;99805.06;;;20.06;45.29
64616;BME280;51027;42.162;24.754;2024-03-29T07:16:41;99812.75;;;20.33;45.20
64616;BME280;51027;42.162;24.754;2024-03-29T07:19:06;99796.03;;;19.96;45.62
64616;BME280;51027;42.162;24.754;2024-03-29T07:21:32;99809.97;;;20.23;44.75
64616;BME280;51027;42.162;24.754;2024-03-29T07:23:57;99811.38;;;20.05;44.89
64616;BME280;51027;42.162;24.754;2024-03-29T07:26:23;99815.47;;;19.98;44.70
64616;BME280;51027;42.162;24.754;2024-03-29T07:28:48;99826.59;;;20.84;43.58
64616;BME280;51027;42.162;24.754;2024-03-29T07:31:14;99835.34;;;20.86;43.26
64616;BME280;51027;42.162;24.754;2024-03-29T07:33:39;99834.25;;;20.89;43.06
64616;BME280;51027;42.162;24.754;2024-03-29T07:36:05;99817.06;;;20.91;43.45
64616;BME280;51027;42.162;24.754;2024-03-29T07:38:33;99797.13;;;20.73;42.88
64616;BME280;51027;42.162;24.754;2024-03-29T07:40:58;99809.41;;;20.87;43.05
64616;BME280;51027;42.162;24.754;2024-03-29T07:43:24;99821.47;;;20.70;43.33
64616;BME280;51027;42.162;24.754;2024-03-29T07:45:49;99824.97;;;21.15;42.64
64616;BME280;51027;42.162;24.754;2024-03-29T07:48:21;99838.75;;;21.65;41.68
64616;BME280;51027;42.162;24.754;2024-03-29T07:50:47;99844.78;;;21.35;42.22
64616;BME280;51027;42.162;24.754;2024-03-29T07:53:12;99837.50;;;21.37;42.08
64616;BME280;51027;42.162;24.754;2024-03-29T07:55:39;99835.97;;;21.55;42.25
64616;BME280;51027;42.162;24.754;2024-03-29T07:58:05;99838.59;;;21.35;42.02
64616;BME280;51027;42.162;24.754;2024-03-29T08:00:32;99851.75;;;21.81;41.70
64616;BME280;51027;42.162;24.754;2024-03-29T08:02:58;99851.19;;;21.98;41.52
64616;BME280;51027;42.162;24.754;2024-03-29T08:05:24;99834.03;;;21.90;40.98
64616;BME280;51027;42.162;24.754;2024-03-29T08:07:49;99845.34;;;21.93;41.10
64616;BME280;51027;42.162;24.754;2024-03-29T08:10:15;99849.28;;;22.21;40.52
64616;BME280;51027;42.162;24.754;2024-03-29T08:12:40;99825.22;;;22.61;39.91
64616;BME280;51027;42.162;24.754;2024-03-29T08:15:06;99828.19;;;22.37;39.88
64616;BME280;51027;42.162;24.754;2024-03-29T08:17:33;99832.81;;;22.56;39.51
64616;BME280;51027;42.162;24.754;2024-03-29T08:19:58;99825.69;;;22.97;38.91
64616;BME280;51027;42.162;24.754;2024-03-29T08:22:24;99828.91;;;22.60;39.12
64616;BME280;51027;42.162;24.754;2024-03-29T08:24:49;99848.56;;;22.19;40.11
64616;BME280;51027;42.162;24.754;2024-03-29T08:27:15;99839.38;;;22.42;40.08
64616;BME280;51027;42.162;24.754;2024-03-29T08:29:43;99845.53;;;22.54;39.64
64616;BME280;51027;42.162;24.754;2024-03-29T08:32:09;99844.25;;;23.00;39.44
64616;BME280;51027;42.162;24.754;2024-03-29T08:34:36;99847.81;;;23.70;38.45
64616;BME280;51027;42.162;24.754;2024-03-29T08:37:02;99846.66;;;24.30;37.57
64616;BME280;51027;42.162;24.754;2024-03-29T08:39:30;99852.22;;;23.61;38.14
64616;BME280;51027;42.162;24.754;2024-03-29T08:41:57;99840.47;;;23.62;37.97
64616;BME280;51027;42.162;24.754;2024-03-29T08:44:22;99813.69;;;23.80;37.75
64616;BME280;51027;42.162;24.754;2024-03-29T08:46:50;99841.28;;;24.30;37.36
64616;BME280;51027;42.162;24.754;2024-03-29T08:49:15;99826.88;;;23.73;37.56
64616;BME280;51027;42.162;24.754;2024-03-29T08:51:41;99822.91;;;23.08;38.38
64616;BME280;51027;42.162;24.754;2024-03-29T08:54:06;99826.72;;;24.13;37.95
64616;BME280;51027;42.162;24.754;2024-03-29T08:56:32;99833.06;;;23.54;38.36
64616;BME280;51027;42.162;24.754;2024-03-29T08:58:59;99829.84;;;23.90;37.91
64616;BME280;51027;42.162;24.754;2024-03-29T09:01:28;99833.38;;;24.38;36.98
64616;BME280;51027;42.162;24.754;2024-03-29T09:03:53;99844.81;;;24.50;36.72
64616;BME280;51027;42.162;24.754;2024-03-29T09:06:19;99836.50;;;23.66;37.23
64616;BME280;51027;42.162;24.754;2024-03-29T09:08:44;99836.22;;;23.79;37.57
64616;BME280;51027;42.162;24.754;2024-03-29T09:11:10;99835.59;;;24.99;36.09
64616;BME280;51027;42.162;24.754;2024-03-29T09:13:36;99840.13;;;25.36;36.29
64616;BME280;51027;42.162;24.754;2024-03-29T09:16:02;99834.19;;;24.49;37.09
64616;BME280;51027;42.162;24.754;2024-03-29T09:18:27;99816.06;;;25.25;35.55
64616;BME280;51027;42.162;24.754;2024-03-29T09:21:00;99837.22;;;24.07;36.20
64616;BME280;51027;42.162;24.754;2024-03-29T09:23:26;99828.53;;;24.89;36.10
64616;BME280;51027;42.162;24.754;2024-03-29T09:25:54;99828.53;;;25.26;35.79
64616;BME280;51027;42.162;24.754;2024-03-29T09:28:19;99826.94;;;25.51;34.73
64616;BME280;51027;42.162;24.754;2024-03-29T09:30:47;99821.72;;;25.04;34.83
64616;BME280;51027;42.162;24.754;2024-03-29T09:33:13;99823.19;;;24.23;35.63
64616;BME280;51027;42.162;24.754;2024-03-29T09:35:38;99799.69;;;24.05;35.94
64616;BME280;51027;42.162;24.754;2024-03-29T09:38:04;99797.69;;;24.74;34.99
64616;BME280;51027;42.162;24.754;2024-03-29T09:40:30;99807.94;;;24.97;34.20
64616;BME280;51027;42.162;24.754;2024-03-29T09:42:56;99791.84;;;24.31;34.53
64616;BME280;51027;42.162;24.754;2024-03-29T09:45:34;99779.97;;;24.71;34.16
64616;BME280;51027;42.162;24.754;2024-03-29T09:48:03;99779.69;;;24.18;34.69
64616;BME280;51027;42.162;24.754;2024-03-29T09:50:31;99788.00;;;24.53;34.37
64616;BME280;51027;42.162;24.754;2024-03-29T09:52:57;99791.47;;;23.88;34.09
64616;BME280;51027;42.162;24.754;2024-03-29T09:55:23;99740.63;;;24.04;32.96
64616;BME280;51027;42.162;24.754;2024-03-29T09:57:49;99754.09;;;24.88;32.47
64616;BME280;51027;42.162;24.754;2024-03-29T10:00:15;99781.94;;;26.05;32.11
64616;BME280;51027;42.162;24.754;2024-03-29T10:02:40;99783.28;;;26.27;32.89
64616;BME280;51027;42.162;24.754;2024-03-29T10:05:08;99751.09;;;26.59;32.15
64616;BME280;51027;42.162;24.754;2024-03-29T10:07:34;99786.66;;;26.03;32.25
64616;BME280;51027;42.162;24.754;2024-03-29T10:10:01;99756.13;;;26.28;31.96
64616;BME280;51027;42.162;24.754;2024-03-29T10:12:28;99769.69;;;26.36;33.09
64616;BME280;51027;42.162;24.754;2024-03-29T10:14:54;99780.16;;;26.65;30.93
64616;BME280;51027;42.162;24.754;2024-03-29T10:17:30;99775.22;;;26.95;31.77
64616;BME280;51027;42.162;24.754;2024-03-29T10:20:02;99773.47;;;27.12;30.71
64616;BME280;51027;42.162;24.754;2024-03-29T10:22:29;99766.84;;;27.06;30.68
64616;BME280;51027;42.162;24.754;2024-03-29T10:24:57;99755.72;;;26.67;30.68
64616;BME280;51027;42.162;24.754;2024-03-29T10:27:27;99740.75;;;26.97;31.41
64616;BME280;51027;42.162;24.754;2024-03-29T10:29:53;99729.81;;;26.98;31.51
64616;BME280;51027;42.162;24.754;2024-03-29T10:32:18;99723.91;;;25.65;32.03
64616;BME280;51027;42.162;24.754;2024-03-29T10:34:44;99684.56;;;26.32;32.75
64616;BME280;51027;42.162;24.754;2024-03-29T10:37:09;99732.84;;;26.27;31.15
64616;BME280;51027;42.162;24.754;2024-03-29T10:39:36;99720.28;;;26.18;31.42
64616;BME280;51027;42.162;24.754;2024-03-29T10:42:01;99714.59;;;26.97;30.87
64616;BME280;51027;42.162;24.754;2024-03-29T10:44:28;99706.09;;;27.51;30.76
64616;BME280;51027;42.162;24.754;2024-03-29T10:46:56;99691.53;;;27.36;31.84
64616;BME280;51027;42.162;24.754;2024-03-29T10:49:23;99691.53;;;27.19;30.89
64616;BME280;51027;42.162;24.754;2024-03-29T10:51:49;99694.63;;;27.73;30.81
64616;BME280;51027;42.162;24.754;2024-03-29T10:54:16;99689.69;;;27.61;30.55
64616;BME280;51027;42.162;24.754;2024-03-29T10:56:43;99678.75;;;26.95;30.50
64616;BME280;51027;42.162;24.754;2024-03-29T11:01:44;99657.72;;;27.56;31.33
64616;BME280;51027;42.162;24.754;2024-03-29T11:04:22;99643.50;;;27.78;29.97
64616;BME280;51027;42.162;24.754;2024-03-29T11:06:51;99655.19;;;27.63;30.30
64616;BME280;51027;42.162;24.754;2024-03-29T11:09:19;99649.09;;;27.52;30.70
64616;BME280;51027;42.162;24.754;2024-03-29T11:11:48;99650.78;;;27.78;29.48
64616;BME280;51027;42.162;24.754;2024-03-29T11:14:20;99661.78;;;27.84;30.77
64616;BME280;51027;42.162;24.754;2024-03-29T11:16:45;99655.00;;;27.56;30.31
64616;BME280;51027;42.162;24.754;2024-03-29T11:19:14;99661.91;;;27.99;30.24
64616;BME280;51027;42.162;24.754;2024-03-29T11:21:41;99642.84;;;27.76;30.12
64616;BME280;51027;42.162;24.754;2024-03-29T11:24:08;99648.53;;;28.06;30.08
64616;BME280;51027;42.162;24.754;2024-03-29T11:26:34;99651.72;;;28.09;30.07
64616;BME280;51027;42.162;24.754;2024-03-29T11:29:00;99645.63;;;28.16;30.18
64616;BME280;51027;42.162;24.754;2024-03-29T11:31:27;99659.34;;;28.14;29.92
64616;BME280;51027;42.162;24.754;2024-03-29T11:33:53;99636.22;;;27.38;30.48
64616;BME280;51027;42.162;24.754;2024-03-29T11:38:51;99636.44;;;27.69;30.16
64616;BME280;51027;42.162;24.754;2024-03-29T11:43:43;99623.03;;;27.92;29.29
64616;BME280;51027;42.162;24.754;2024-03-29T11:46:11;99639.84;;;28.19;28.83
64616;BME280;51027;42.162;24.754;2024-03-29T11:48:38;99646.34;;;28.01;29.19
64616;BME280;51027;42.162;24.754;2024-03-29T11:51:08;99653.09;;;28.05;28.49
64616;BME280;51027;42.162;24.754;2024-03-29T11:53:35;99651.25;;;27.98;28.33
64616;BME280;51027;42.162;24.754;2024-03-29T11:56:02;99646.28;;;28.18;28.10
64616;BME280;51027;42.162;24.754;2024-03-29T11:58:30;99625.81;;;28.31;28.77
64616;BME280;51027;42.162;24.754;2024-03-29T12:00:57;99645.84;;;28.53;27.77
64616;BME280;51027;42.162;24.754;2024-03-29T12:03:25;99644.88;;;28.46;27.83
64616;BME280;51027;42.162;24.754;2024-03-29T12:05:52;99629.59;;;28.53;27.65
64616;BME280;51027;42.162;24.754;2024-03-29T12:08:20;99636.84;;;28.61;27.38
64616;BME280;51027;42.162;24.754;2024-03-29T12:10:45;99594.94;;;27.93;28.24
64616;BME280;51027;42.162;24.754;2024-03-29T12:13:11;99630.31;;;27.92;29.09
64616;BME280;51027;42.162;24.754;2024-03-29T12:15:36;99621.50;;;27.90;29.32
64616;BME280;51027;42.162;24.754;2024-03-29T12:18:05;99605.81;;;28.24;27.87
64616;BME280;51027;42.162;24.754;2024-03-29T12:20:34;99624.03;;;28.47;28.76
64616;BME280;51027;42.162;24.754;2024-03-29T12:23:03;99597.66;;;27.77;29.37
64616;BME280;51027;42.162;24.754;2024-03-29T12:25:29;99611.72;;;27.80;31.21
64616;BME280;51027;42.162;24.754;2024-03-29T12:27:55;99615.81;;;27.19;29.51
64616;BME280;51027;42.162;24.754;2024-03-29T12:30:21;99607.50;;;27.13;29.18
64616;BME280;51027;42.162;24.754;2024-03-29T12:32:47;99605.63;;;27.54;30.16
64616;BME280;51027;42.162;24.754;2024-03-29T12:35:14;99607.25;;;27.96;29.88
64616;BME280;51027;42.162;24.754;2024-03-29T12:37:50;99616.38;;;28.11;28.55
64616;BME280;51027;42.162;24.754;2024-03-29T12:40:17;99608.34;;;28.65;27.90
64616;BME280;51027;42.162;24.754;2024-03-29T12:42:49;99576.47;;;28.44;27.62
64616;BME280;51027;42.162;24.754;2024-03-29T12:45:16;99605.16;;;28.22;28.10
64616;BME280;51027;42.162;24.754;2024-03-29T12:47:42;99615.31;;;28.28;28.70
64616;BME280;51027;42.162;24.754;2024-03-29T12:50:08;99565.88;;;28.57;27.60
64616;BME280;51027;42.162;24.754;2024-03-29T12:52:40;99621.53;;;29.22;27.92
64616;BME280;51027;42.162;24.754;2024-03-29T12:55:06;99601.88;;;29.20;27.59
64616;BME280;51027;42.162;24.754;2024-03-29T12:57:37;99621.25;;;28.94;26.92
64616;BME280;51027;42.162;24.754;2024-03-29T13:00:04;99611.44;;;28.62;28.25
64616;BME280;51027;42.162;24.754;2024-03-29T13:02:35;99589.59;;;28.55;27.36
64616;BME280;51027;42.162;24.754;2024-03-29T13:05:01;99613.44;;;28.29;27.61
64616;BME280;51027;42.162;24.754;2024-03-29T13:07:27;99611.97;;;28.10;28.42
64616;BME280;51027;42.162;24.754;2024-03-29T13:09:52;99605.47;;;28.35;27.83
64616;BME280;51027;42.162;24.754;2024-03-29T13:12:18;99618.03;;;28.59;27.37
64616;BME280;51027;42.162;24.754;2024-03-29T13:14:44;99606.66;;;28.33;27.85
64616;BME280;51027;42.162;24.754;2024-03-29T13:17:09;99595.16;;;28.23;28.14
64616;BME280;51027;42.162;24.754;2024-03-29T13:19:35;99600.41;;;28.32;28.08
64616;BME280;51027;42.162;24.754;2024-03-29T13:22:01;99602.19;;;28.40;27.10
64616;BME280;51027;42.162;24.754;2024-03-29T13:24:26;99589.88;;;28.37;27.91
64616;BME280;51027;42.162;24.754;2024-03-29T13:26:54;99608.34;;;28.96;28.20
64616;BME280;51027;42.162;24.754;2024-03-29T13:29:19;99609.84;;;28.36;27.38
64616;BME280;51027;42.162;24.754;2024-03-29T13:31:45;99605.53;;;28.81;27.90
64616;BME280;51027;42.162;24.754;2024-03-29T13:34:11;99612.78;;;28.58;27.57
64616;BME280;51027;42.162;24.754;2024-03-29T13:36:40;99604.91;;;28.40;27.33
64616;BME280;51027;42.162;24.754;2024-03-29T13:39:07;99604.03;;;28.48;27.45
64616;BME280;51027;42.162;24.754;2024-03-29T13:41:33;99567.34;;;28.37;28.63
64616;BME280;51027;42.162;24.754;2024-03-29T13:44:01;99581.34;;;28.49;29.00
64616;BME280;51027;42.162;24.754;2024-03-29T13:46:33;99598.03;;;28.60;28.71
64616;BME280;51027;42.162;24.754;2024-03-29T13:48:59;99603.28;;;28.23;29.37
64616;BME280;51027;42.162;24.754;2024-03-29T13:51:25;99598.81;;;28.46;28.92
64616;BME280;51027;42.162;24.754;2024-03-29T13:53:51;99600.41;;;28.63;29.12
64616;BME280;51027;42.162;24.754;2024-03-29T13:56:16;99605.94;;;28.70;28.17
64616;BME280;51027;42.162;24.754;2024-03-29T13:58:41;99593.63;;;28.59;27.97
64616;BME280;51027;42.162;24.754;2024-03-29T14:01:07;99583.63;;;28.60;28.05
64616;BME280;51027;42.162;24.754;2024-03-29T14:03:32;99581.16;;;28.50;27.91
64616;BME280;51027;42.162;24.754;2024-03-29T14:05:59;99599.56;;;28.24;28.27
64616;BME280;51027;42.162;24.754;2024-03-29T14:08:25;99604.91;;;28.40;27.99
64616;BME280;51027;42.162;24.754;2024-03-29T14:10:51;99589.59;;;28.55;28.20
64616;BME280;51027;42.162;24.754;2024-03-29T14:13:18;99581.53;;;28.00;27.93
64616;BME280;51027;42.162;24.754;2024-03-29T14:15:44;99604.19;;;28.07;27.40
64616;BME280;51027;42.162;24.754;2024-03-29T14:18:09;99578.28;;;28.12;27.75
64616;BME280;51027;42.162;24.754;2024-03-29T14:20:34;99582.63;;;28.30;27.95
64616;BME280;51027;42.162;24.754;2024-03-29T14:23:00;99585.00;;;28.33;27.98
64616;BME280;51027;42.162;24.754;2024-03-29T14:25:29;99601.56;;;28.30;27.46
64616;BME280;51027;42.162;24.754;2024-03-29T14:27:54;99597.16;;;27.90;28.14
64616;BME280;51027;42.162;24.754;2024-03-29T14:30:23;99588.38;;;27.79;28.16
64616;BME280;51027;42.162;24.754;2024-03-29T14:32:51;99583.81;;;27.72;28.28
64616;BME280;51027;42.162;24.754;2024-03-29T14:35:17;99589.03;;;27.57;28.87
64616;BME280;51027;42.162;24.754;2024-03-29T14:37:45;99577.41;;;27.24;30.15
64616;BME280;51027;42.162;24.754;2024-03-29T14:40:12;99562.34;;;27.46;28.71
64616;BME280;51027;42.162;24.754;2024-03-29T14:42:41;99584.97;;;26.96;29.97
64616;BME280;51027;42.162;24.754;2024-03-29T14:45:08;99565.09;;;27.30;29.65
64616;BME280;51027;42.162;24.754;2024-03-29T14:47:33;99567.75;;;26.97;29.52
64616;BME280;51027;42.162;24.754;2024-03-29T14:50:03;99587.19;;;26.92;30.01
64616;BME280;51027;42.162;24.754;2024-03-29T14:52:33;99578.38;;;26.74;30.13
64616;BME280;51027;42.162;24.754;2024-03-29T14:54:59;99569.88;;;26.45;30.52
64616;BME280;51027;42.162;24.754;2024-03-29T14:57:34;99590.78;;;26.42;30.28
64616;BME280;51027;42.162;24.754;2024-03-29T14:59:59;99583.06;;;26.13;30.79
64616;BME280;51027;42.162;24.754;2024-03-29T15:02:25;99582.25;;;26.21;30.89
64616;BME280;51027;42.162;24.754;2024-03-29T15:04:50;99566.69;;;26.15;30.68
64616;BME280;51027;42.162;24.754;2024-03-29T15:07:16;99600.75;;;26.42;31.07
64616;BME280;51027;42.162;24.754;2024-03-29T15:09:41;99577.56;;;26.31;31.05
64616;BME280;51027;42.162;24.754;2024-03-29T15:12:07;99575.13;;;26.12;32.11
64616;BME280;51027;42.162;24.754;2024-03-29T15:14:34;99600.66;;;26.18;32.54
64616;BME280;51027;42.162;24.754;2024-03-29T15:17:01;99606.13;;;26.00;32.33
64616;BME280;51027;42.162;24.754;2024-03-29T15:19:26;99592.00;;;25.80;32.19
64616;BME280;51027;42.162;24.754;2024-03-29T15:21:51;99599.22;;;25.71;32.52
64616;BME280;51027;42.162;24.754;2024-03-29T15:24:17;99601.75;;;25.73;32.89
64616;BME280;51027;42.162;24.754;2024-03-29T15:26:42;99587.38;;;25.46;32.73
64616;BME280;51027;42.162;24.754;2024-03-29T15:29:08;99585.56;;;25.29;33.05
64616;BME280;51027;42.162;24.754;2024-03-29T15:31:39;99567.78;;;25.18;33.29
64616;BME280;51027;42.162;24.754;2024-03-29T15:34:06;99591.53;;;25.15;33.69
64616;BME280;51027;42.162;24.754;2024-03-29T15:36:33;99594.50;;;25.12;33.92
64616;BME280;51027;42.162;24.754;2024-03-29T15:38:59;99584.25;;;24.97;34.69
64616;BME280;51027;42.162;24.754;2024-03-29T15:41:34;99586.81;;;24.99;34.32
64616;BME280;51027;42.162;24.754;2024-03-29T15:44:00;99577.72;;;24.82;34.69
64616;BME280;51027;42.162;24.754;2024-03-29T15:46:27;99584.81;;;24.83;34.68
64616;BME280;51027;42.162;24.754;2024-03-29T15:48:53;99574.72;;;24.67;35.05
64616;BME280;51027;42.162;24.754;2024-03-29T15:51:18;99577.03;;;24.62;35.15
64616;BME280;51027;42.162;24.754;2024-03-29T15:53:44;99573.09;;;24.57;35.31
64616;BME280;51027;42.162;24.754;2024-03-29T15:56:09;99590.31;;;24.46;35.77
64616;BME280;51027;42.162;24.754;2024-03-29T15:58:37;99579.91;;;24.33;35.82
64616;BME280;51027;42.162;24.754;2024-03-29T16:01:03;99560.44;;;24.12;36.47
64616;BME280;51027;42.162;24.754;2024-03-29T16:03:32;99574.75;;;24.12;36.51
64616;BME280;51027;42.162;24.754;2024-03-29T16:05:58;99572.09;;;24.03;36.84
64616;BME280;51027;42.162;24.754;2024-03-29T16:08:24;99573.44;;;23.89;37.37
64616;BME280;51027;42.162;24.754;2024-03-29T16:10:55;99586.50;;;23.84;37.84
64616;BME280;51027;42.162;24.754;2024-03-29T16:13:25;99563.59;;;23.70;38.01
64616;BME280;51027;42.162;24.754;2024-03-29T16:15:53;99553.13;;;23.57;38.37
64616;BME280;51027;42.162;24.754;2024-03-29T16:18:19;99573.78;;;23.57;38.28
64616;BME280;51027;42.162;24.754;2024-03-29T16:20:45;99564.91;;;23.47;38.89
64616;BME280;51027;42.162;24.754;2024-03-29T16:23:12;99583.03;;;23.45;38.58
64616;BME280;51027;42.162;24.754;2024-03-29T16:25:38;99586.28;;;23.39;38.93
64616;BME280;51027;42.162;24.754;2024-03-29T16:28:05;99575.00;;;23.25;38.98
64616;BME280;51027;42.162;24.754;2024-03-29T16:30:32;99547.75;;;23.01;39.12
64616;BME280;51027;42.162;24.754;2024-03-29T16:32:57;99582.91;;;23.17;39.11
64616;BME280;51027;42.162;24.754;2024-03-29T16:35:23;99576.31;;;23.02;39.59
64616;BME280;51027;42.162;24.754;2024-03-29T16:37:48;99557.34;;;22.84;39.95
64616;BME280;51027;42.162;24.754;2024-03-29T16:40:14;99571.94;;;22.91;40.08
64616;BME280;51027;42.162;24.754;2024-03-29T16:42:39;99581.94;;;22.80;40.40
64616;BME280;51027;42.162;24.754;2024-03-29T16:45:05;99581.63;;;22.73;40.44
64616;BME280;51027;42.162;24.754;2024-03-29T16:47:31;99563.25;;;22.59;40.85
64616;BME280;51027;42.162;24.754;2024-03-29T16:49:56;99587.56;;;22.67;41.06
64616;BME280;51027;42.162;24.754;2024-03-29T16:52:22;99557.75;;;22.51;41.05
64616;BME280;51027;42.162;24.754;2024-03-29T16:54:48;99576.78;;;22.38;41.57
64616;BME280;51027;42.162;24.754;2024-03-29T16:57:15;99599.25;;;22.47;41.55
64616;BME280;51027;42.162;24.754;2024-03-29T16:59:40;99572.34;;;22.27;41.84
64616;BME280;51027;42.162;24.754;2024-03-29T17:02:06;99593.84;;;22.37;41.78
64616;BME280;51027;42.162;24.754;2024-03-29T17:04:31;99580.13;;;22.21;41.98
64616;BME280;51027;42.162;24.754;2024-03-29T17:06:56;99599.34;;;22.26;42.30
64616;BME280;51027;42.162;24.754;2024-03-29T17:09:36;99602.28;;;22.23;42.00
64616;BME280;51027;42.162;24.754;2024-03-29T17:12:01;99595.78;;;22.16;42.21
64616;BME280;51027;42.162;24.754;2024-03-29T17:14:28;99592.88;;;21.98;42.55
64616;BME280;51027;42.162;24.754;2024-03-29T17:16:57;99592.72;;;21.99;42.68
64616;BME280;51027;42.162;24.754;2024-03-29T17:19:26;99592.69;;;21.90;43.02
64616;BME280;51027;42.162;24.754;2024-03-29T17:21:53;99606.66;;;21.93;42.74
64616;BME280;51027;42.162;24.754;2024-03-29T17:24:18;99605.38;;;21.88;42.74
64616;BME280;51027;42.162;24.754;2024-03-29T17:26:44;99600.28;;;21.84;42.54
64616;BME280;51027;42.162;24.754;2024-03-29T17:29:09;99599.00;;;21.79;42.77